^^
Datos históricos de la estación: Murcia-Puente Tocinos
Diario Informe para Agosto 17, 2019 Unidades:  Métrico    Inglés   Ambas
Diario Semanal Mensual Anual Configurable
  Máximo: Mínimo: Media:
Temperatura: 35.9 °C 23.1 °C 28.5 °C
Punto de rocio: 22.4 °C 15.6 °C 20 °C
Humedad: 89% 32% 64%
Velocidad viento: 16.1km/h 0.0km/h 7.5km/h
Racha viento: 30.6km/h - -
Viento- - ESE
Presión: 1014.9 hPa 1009.9 hPa -
Precipitación: 0.0 mm    
Historical Graphs
 
 
Tabla de datos para Agosto 17, 2019
Hora Temperatura Punto de rocio Presión Viento Velocidad viento Racha viento Humedad Intensidad lluvia(por hora) Nubes
00:00 25.1 °C 22.4 °C 1014.8 hPa NE 11.3 km/h 16.1 km/h 85% 0.0 mm
00:05 25.1 °C 22.4 °C 1014.9 hPa NNE 11.3 km/h 14.5 km/h 85% 0.0 mm
00:10 25.1 °C 22.4 °C 1014.9 hPa NNE 9.7 km/h 12.9 km/h 85% 0.0 mm
00:15 24.9 °C 22.2 °C 1014.9 hPa NNE 9.7 km/h 11.3 km/h 85% 0.0 mm
00:20 24.9 °C 22.2 °C 1014.8 hPa NE 8.0 km/h 12.9 km/h 85% 0.0 mm
00:25 24.8 °C 22.1 °C 1014.8 hPa NE 8.0 km/h 14.5 km/h 85% 0.0 mm
00:30 24.8 °C 22.3 °C 1014.8 hPa NE 9.7 km/h 14.5 km/h 86% 0.0 mm
00:35 24.8 °C 22.3 °C 1014.8 hPa NE 9.7 km/h 12.9 km/h 86% 0.0 mm
00:40 24.8 °C 22.3 °C 1014.8 hPa NE 8.0 km/h 14.5 km/h 86% 0.0 mm
00:45 24.7 °C 22.2 °C 1014.8 hPa NE 8.0 km/h 14.5 km/h 86% 0.0 mm
00:50 24.7 °C 22.2 °C 1014.9 hPa NE 9.7 km/h 14.5 km/h 86% 0.0 mm
00:55 24.7 °C 22.4 °C 1014.9 hPa NE 9.7 km/h 14.5 km/h 87% 0.0 mm
01:00 24.7 °C 22.4 °C 1014.9 hPa NE 9.7 km/h 14.5 km/h 87% 0.0 mm
01:05 24.7 °C 22.4 °C 1014.8 hPa NE 9.7 km/h 12.9 km/h 87% 0.0 mm
01:10 24.7 °C 22.4 °C 1014.8 hPa NE 9.7 km/h 14.5 km/h 87% 0.0 mm
01:15 24.7 °C 22.4 °C 1014.8 hPa NE 9.7 km/h 11.3 km/h 87% 0.0 mm
01:20 24.6 °C 22.3 °C 1014.7 hPa NE 8.0 km/h 12.9 km/h 87% 0.0 mm
01:25 24.6 °C 22.3 °C 1014.7 hPa NE 8.0 km/h 11.3 km/h 87% 0.0 mm
01:30 24.6 °C 22.3 °C 1014.7 hPa NE 8.0 km/h 11.3 km/h 87% 0.0 mm
01:35 24.5 °C 22.4 °C 1014.7 hPa NE 8.0 km/h 12.9 km/h 88% 0.0 mm
01:40 24.4 °C 22.3 °C 1014.7 hPa NE 9.7 km/h 14.5 km/h 88% 0.0 mm
01:45 24.4 °C 22.3 °C 1014.7 hPa NE 9.7 km/h 12.9 km/h 88% 0.0 mm
01:50 24.4 °C 22.3 °C 1014.7 hPa NE 8.0 km/h 11.3 km/h 88% 0.0 mm
01:55 24.4 °C 22.3 °C 1014.7 hPa NE 8.0 km/h 11.3 km/h 88% 0.0 mm
02:00 24.3 °C 22.2 °C 1014.7 hPa NE 8.0 km/h 11.3 km/h 88% 0.0 mm
02:05 24.3 °C 22.2 °C 1014.5 hPa NE 8.0 km/h 11.3 km/h 88% 0.0 mm
02:10 24.2 °C 22.1 °C 1014.5 hPa NE 8.0 km/h 9.7 km/h 88% 0.0 mm
02:15 24.2 °C 22.3 °C 1014.5 hPa NE 8.0 km/h 9.7 km/h 89% 0.0 mm
02:20 24.2 °C 22.3 °C 1014.5 hPa NE 8.0 km/h 9.7 km/h 89% 0.0 mm
02:25 24.2 °C 22.3 °C 1014.5 hPa NE 8.0 km/h 9.7 km/h 89% 0.0 mm
02:30 24.2 °C 22.3 °C 1014.5 hPa NE 4.8 km/h 9.7 km/h 89% 0.0 mm
02:35 24.2 °C 22.3 °C 1014.5 hPa NE 4.8 km/h 8.0 km/h 89% 0.0 mm
02:40 24.2 °C 22.1 °C 1014.5 hPa NE 3.2 km/h 9.7 km/h 88% 0.0 mm
02:45 24.2 °C 22.1 °C 1014.5 hPa NE 3.2 km/h 9.7 km/h 88% 0.0 mm
02:50 24.2 °C 22.3 °C 1014.4 hPa NE 4.8 km/h 9.7 km/h 89% 0.0 mm
02:55 24.2 °C 22.2 °C 1014.4 hPa NE 4.8 km/h 9.7 km/h 89% 0.0 mm
03:00 24.1 °C 22.2 °C 1014.4 hPa NE 4.8 km/h 9.7 km/h 89% 0.0 mm
03:05 24.1 °C 22.2 °C 1014.4 hPa NE 4.8 km/h 8.0 km/h 89% 0.0 mm
03:10 24.0 °C 22.1 °C 1014.4 hPa NE 3.2 km/h 4.8 km/h 89% 0.0 mm
03:15 24.1 °C 22.2 °C 1014.4 hPa NE 3.2 km/h 3.2 km/h 89% 0.0 mm
03:20 24.1 °C 22.2 °C 1014.3 hPa Calm     89% 0.0 mm
03:25 24.1 °C 22.2 °C 1014.3 hPa Calm   8.0 km/h 89% 0.0 mm
03:30 24.1 °C 22.2 °C 1014.3 hPa NNW 3.2 km/h 3.2 km/h 89% 0.0 mm
03:35 24.0 °C 22.1 °C 1014.2 hPa NNW 3.2 km/h   89% 0.0 mm
03:40 24.0 °C 22.1 °C 1014.2 hPa Calm     89% 0.0 mm
03:45 23.9 °C 21.8 °C 1014.2 hPa Calm     88% 0.0 mm
03:50 23.9 °C 21.8 °C 1014.1 hPa Calm   3.2 km/h 88% 0.0 mm
03:55 23.9 °C 21.8 °C 1014.1 hPa Calm   4.8 km/h 88% 0.0 mm
04:00 23.9 °C 21.8 °C 1014.1 hPa Calm     88% 0.0 mm
04:05 23.8 °C 21.7 °C 1014.1 hPa Calm     88% 0.0 mm
04:10 23.8 °C 21.7 °C 1014.1 hPa Calm     88% 0.0 mm
04:15 23.8 °C 21.7 °C 1014.1 hPa Calm   4.8 km/h 88% 0.0 mm
04:20 23.7 °C 21.6 °C 1014.0 hPa Calm     88% 0.0 mm CLR
04:25 23.7 °C 21.6 °C 1014.0 hPa Calm     88% 0.0 mm
04:30 23.7 °C 21.6 °C 1014.0 hPa Calm     88% 0.0 mm
04:35 23.8 °C 21.7 °C 1013.8 hPa Calm     88% 0.0 mm
04:40 23.7 °C 21.4 °C 1013.8 hPa Calm     87% 0.0 mm
04:45 23.7 °C 21.4 °C 1013.8 hPa Calm   6.4 km/h 87% 0.0 mm
04:50 23.6 °C 21.1 °C 1013.7 hPa SE 3.2 km/h 8.0 km/h 86% 0.0 mm
04:55 23.6 °C 21.1 °C 1013.7 hPa SE 3.2 km/h 6.4 km/h 86% 0.0 mm
05:00 23.5 °C 21.2 °C 1013.7 hPa ESE 3.2 km/h 3.2 km/h 87% 0.0 mm
05:05 23.6 °C 21.3 °C 1013.6 hPa ESE 3.2 km/h   87% 0.0 mm
05:10 23.6 °C 21.3 °C 1013.6 hPa Calm   3.2 km/h 87% 0.0 mm
05:15 23.6 °C 21.1 °C 1013.6 hPa Calm     86% 0.0 mm
05:20 23.5 °C 21.0 °C 1013.6 hPa Calm     86% 0.0 mm
05:25 23.4 °C 20.9 °C 1013.6 hPa Calm     86% 0.0 mm CLR
05:30 23.4 °C 20.9 °C 1013.6 hPa Calm     86% 0.0 mm CLR
05:35 23.3 °C 20.8 °C 1013.6 hPa Calm   4.8 km/h 86% 0.0 mm CLR
05:40 23.3 °C 20.8 °C 1013.6 hPa NNW 1.6 km/h 3.2 km/h 86% 0.0 mm CLR
05:45 23.2 °C 20.9 °C 1013.6 hPa NW 1.6 km/h   87% 0.0 mm CLR
05:50 23.2 °C 20.9 °C 1013.5 hPa Calm     87% 0.0 mm CLR
05:55 23.2 °C 20.9 °C 1013.5 hPa Calm     87% 0.0 mm CLR
06:00 23.2 °C 20.9 °C 1013.5 hPa Calm     87% 0.0 mm CLR
06:05 23.1 °C 20.8 °C 1013.6 hPa Calm     87% 0.0 mm CLR
06:10 23.1 °C 20.8 °C 1013.6 hPa Calm     87% 0.0 mm CLR
06:15 23.2 °C 21.1 °C 1013.6 hPa Calm     88% 0.0 mm
06:20 23.1 °C 20.8 °C 1013.5 hPa Calm     87% 0.0 mm CLR
06:25 23.1 °C 20.8 °C 1013.5 hPa Calm     87% 0.0 mm CLR
06:30 23.1 °C 20.8 °C 1013.5 hPa Calm     87% 0.0 mm CLR
06:35 23.1 °C 21.0 °C 1013.6 hPa Calm     88% 0.0 mm
06:40 23.2 °C 20.9 °C 1013.6 hPa Calm     87% 0.0 mm CLR
06:45 23.2 °C 21.1 °C 1013.6 hPa Calm     88% 0.0 mm
06:50 23.2 °C 21.1 °C 1013.7 hPa Calm     88% 0.0 mm
06:55 23.3 °C 21.4 °C 1013.7 hPa Calm     89% 0.0 mm
07:00 23.3 °C 21.4 °C 1013.7 hPa Calm     89% 0.0 mm
07:05 23.3 °C 21.2 °C 1013.8 hPa Calm     88% 0.0 mm
07:10 23.2 °C 20.9 °C 1013.8 hPa Calm     87% 0.0 mm CLR
07:15 23.2 °C 20.9 °C 1013.8 hPa Calm     87% 0.0 mm CLR
07:20 23.2 °C 20.9 °C 1013.9 hPa Calm     87% 0.0 mm CLR
07:25 23.3 °C 21.0 °C 1013.9 hPa Calm     87% 0.0 mm CLR
07:30 23.3 °C 21.0 °C 1013.9 hPa Calm     87% 0.0 mm
07:35 23.3 °C 21.0 °C 1013.9 hPa Calm     87% 0.0 mm
07:40 23.3 °C 21.1 °C 1013.9 hPa Calm     87% 0.0 mm
07:45 23.4 °C 21.3 °C 1013.9 hPa Calm     88% 0.0 mm
07:50 23.4 °C 21.4 °C 1014.0 hPa Calm   4.8 km/h 88% 0.0 mm
07:55 23.5 °C 21.4 °C 1014.0 hPa Calm   4.8 km/h 88% 0.0 mm
08:00 23.4 °C 21.3 °C 1014.0 hPa NW 1.6 km/h 4.8 km/h 88% 0.0 mm
08:05 23.4 °C 21.3 °C 1014.1 hPa NW 1.6 km/h   88% 0.0 mm
08:10 23.5 °C 21.6 °C 1014.1 hPa Calm     89% 0.0 mm
08:15 23.5 °C 21.6 °C 1014.1 hPa Calm     89% 0.0 mm
08:20 23.6 °C 21.7 °C 1014.1 hPa Calm   4.8 km/h 89% 0.0 mm
08:25 23.7 °C 21.8 °C 1014.1 hPa Calm   4.8 km/h 89% 0.0 mm
08:30 23.8 °C 21.7 °C 1014.1 hPa Calm     88% 0.0 mm
08:35 23.9 °C 21.8 °C 1014.3 hPa Calm   6.4 km/h 88% 0.0 mm
08:40 24.1 °C 21.8 °C 1014.3 hPa WNW 3.2 km/h 8.0 km/h 87% 0.0 mm
08:45 24.2 °C 21.9 °C 1014.3 hPa WSW 3.2 km/h 9.7 km/h 87% 0.0 mm
08:50 24.4 °C 21.9 °C 1014.4 hPa WSW 4.8 km/h 11.3 km/h 86% 0.0 mm
08:55 24.5 °C 21.8 °C 1014.4 hPa WSW 4.8 km/h 11.3 km/h 85% 0.0 mm
09:00 24.4 °C 21.6 °C 1014.4 hPa WSW 8.0 km/h 12.9 km/h 84% 0.0 mm CLR
09:05 24.5 °C 21.8 °C 1014.4 hPa WSW 8.0 km/h 11.3 km/h 85% 0.0 mm
09:10 24.6 °C 21.9 °C 1014.4 hPa WSW 8.0 km/h 11.3 km/h 85% 0.0 mm CLR
09:15 24.7 °C 21.8 °C 1014.4 hPa WSW 8.0 km/h 12.9 km/h 84% 0.0 mm CLR
09:20 24.7 °C 21.8 °C 1014.5 hPa WSW 8.0 km/h 11.3 km/h 84% 0.0 mm CLR
09:25 24.7 °C 21.8 °C 1014.5 hPa WSW 8.0 km/h 11.3 km/h 84% 0.0 mm CLR
09:30 24.8 °C 21.9 °C 1014.5 hPa WSW 8.0 km/h 11.3 km/h 84% 0.0 mm CLR
09:35 24.9 °C 21.8 °C 1014.6 hPa SSW 8.0 km/h 9.7 km/h 83% 0.0 mm CLR
09:40 25.1 °C 21.8 °C 1014.6 hPa SSW 4.8 km/h 9.7 km/h 82% 0.0 mm CLR
09:45 25.2 °C 21.9 °C 1014.6 hPa SSW 4.8 km/h 11.3 km/h 82% 0.0 mm CLR
09:50 25.2 °C 21.9 °C 1014.7 hPa SSW 8.0 km/h 9.7 km/h 82% 0.0 mm CLR
09:55 25.3 °C 21.8 °C 1014.7 hPa SSW 8.0 km/h 12.9 km/h 81% 0.0 mm CLR
10:00 25.3 °C 21.8 °C 1014.7 hPa SSW 8.0 km/h 12.9 km/h 81% 0.0 mm CLR
10:05 25.3 °C 21.8 °C 1014.7 hPa SSW 8.0 km/h 11.3 km/h 81% 0.0 mm CLR
10:10 25.5 °C 21.8 °C 1014.7 hPa SSW 8.0 km/h 9.7 km/h 80% 0.0 mm CLR
10:15 25.7 °C 21.8 °C 1014.7 hPa SSW 8.0 km/h 9.7 km/h 79% 0.0 mm CLR
10:20 25.8 °C 21.7 °C 1014.5 hPa SSW 4.8 km/h 9.7 km/h 78% 0.0 mm CLR
10:25 26.0 °C 21.9 °C 1014.5 hPa SSW 4.8 km/h 8.0 km/h 78% 0.0 mm CLR
10:30 26.3 °C 21.7 °C 1014.5 hPa SSW 3.2 km/h 9.7 km/h 76% 0.0 mm CLR
10:35 26.4 °C 21.7 °C 1014.4 hPa SSW 3.2 km/h 8.0 km/h 75% 0.0 mm CLR
10:40 26.6 °C 21.6 °C 1014.4 hPa South 3.2 km/h 8.0 km/h 74% 0.0 mm CLR
10:45 26.8 °C 21.6 °C 1014.4 hPa West 3.2 km/h 8.0 km/h 73% 0.0 mm CLR
10:50 27.1 °C 21.8 °C 1014.4 hPa NNW 3.2 km/h 1.9 km/h 73% 0.0 mm CLR
10:55 27.3 °C 21.8 °C 1014.4 hPa NW 3.2 km/h 12.9 km/h 72% 0.0 mm CLR
11:00 27.4 °C 21.4 °C 1014.4 hPa NW 3.2 km/h 9.7 km/h 70% 0.0 mm CLR
11:05 27.4 °C 21.2 °C 1014.4 hPa NW 3.2 km/h 8.0 km/h 69% 0.0 mm CLR
11:10 27.7 °C 21.0 °C 1014.4 hPa SSE 3.2 km/h 8.0 km/h 67% 0.0 mm CLR
11:15 27.9 °C 20.7 °C 1014.4 hPa SSE 3.2 km/h 8.0 km/h 65% 0.0 mm CLR
11:20 28.2 °C 20.7 °C 1014.3 hPa NW 3.2 km/h 9.7 km/h 64% 0.0 mm CLR
11:25 28.3 °C 20.1 °C 1014.3 hPa NW 3.2 km/h 4.8 km/h 61% 0.0 mm CLR
11:30 28.8 °C 20.2 °C 1014.3 hPa NNW 3.2 km/h 8.0 km/h 60% 0.0 mm CLR
11:35 29.2 °C 20.6 °C 1014.3 hPa NW 3.2 km/h 6.4 km/h 60% 0.0 mm CLR
11:40 29.6 °C 19.0 °C 1014.3 hPa West 3.2 km/h 9.7 km/h 53% 0.0 mm CLR
11:45 29.7 °C 18.5 °C 1014.3 hPa NNW 3.2 km/h 9.7 km/h 51% 0.0 mm CLR
11:50 30.1 °C 18.6 °C 1014.2 hPa NNE 3.2 km/h 12.9 km/h 50% 0.0 mm CLR
11:55 30.3 °C 18.1 °C 1014.2 hPa NE 4.7 km/h 9.3 km/h 48% 0.0 mm CLR
12:00 30.3 °C 18.1 °C 1014.2 hPa NE 8.0 km/h 12.9 km/h 48% 0.0 mm CLR
12:05 30.3 °C 18.4 °C 1014.1 hPa NE 8.0 km/h 11.3 km/h 49% 0.0 mm CLR
12:10 30.7 °C 19.1 °C 1014.1 hPa NE 3.2 km/h 9.7 km/h 50% 0.0 mm CLR
12:15 30.8 °C 19.2 °C 1014.1 hPa NE 3.2 km/h 16.1 km/h 50% 0.0 mm CLR
12:20 30.8 °C 18.5 °C 1014.0 hPa NE 8.0 km/h 11.3 km/h 48% 0.0 mm CLR
12:25 30.9 °C 19.3 °C 1014.0 hPa NNE 8.0 km/h 16.1 km/h 50% 0.0 mm CLR
12:30 31.1 °C 19.4 °C 1014.0 hPa NE 8.0 km/h 12.9 km/h 50% 0.0 mm CLR
12:35 31.1 °C 19.4 °C 1013.7 hPa NNE 8.0 km/h 17.7 km/h 50% 0.0 mm CLR
12:40 31.3 °C 19.3 °C 1013.7 hPa North 8.0 km/h 17.7 km/h 49% 0.0 mm CLR
12:45 31.3 °C 19.3 °C 1013.7 hPa NNE 8.0 km/h 14.5 km/h 49% 0.0 mm CLR
12:50 31.5 °C 19.4 °C 1013.6 hPa NNE 9.7 km/h 14.5 km/h 49% 0.0 mm CLR
12:55 31.9 °C 18.8 °C 1013.6 hPa NE 9.7 km/h 12.9 km/h 46% 0.0 mm CLR
13:00 32.2 °C 18.8 °C 1013.6 hPa NE 8.0 km/h 14.5 km/h 45% 0.0 mm CLR
13:05 32.4 °C 17.9 °C 1013.4 hPa NE 8.0 km/h 14.5 km/h 42% 0.0 mm CLR
13:10 32.7 °C 18.5 °C 1013.4 hPa NNE 9.7 km/h 16.1 km/h 43% 0.0 mm CLR
13:15 32.9 °C 18.3 °C 1013.4 hPa NE 9.7 km/h 12.9 km/h 42% 0.0 mm CLR
13:20 33.2 °C 18.2 °C 1013.2 hPa NE 8.0 km/h 14.5 km/h 41% 0.0 mm CLR
13:25 33.5 °C 17.2 °C 1013.2 hPa ENE 8.0 km/h 16.1 km/h 38% 0.0 mm CLR
13:30 33.8 °C 16.6 °C 1013.2 hPa East 8.0 km/h 16.1 km/h 36% 0.0 mm CLR
13:35 33.9 °C 16.3 °C 1013.0 hPa East 8.0 km/h 16.1 km/h 35% 0.0 mm CLR
13:40 34.3 °C 16.2 °C 1013.0 hPa East 8.7 km/h 13.7 km/h 34% 0.0 mm CLR
13:45 34.4 °C 15.8 °C 1013.0 hPa ENE 9.7 km/h 12.9 km/h 33% 0.0 mm CLR
13:50 34.6 °C 15.9 °C 1012.9 hPa ENE 8.0 km/h 12.9 km/h 33% 0.0 mm CLR
13:55 34.6 °C 16.0 °C 1012.9 hPa ENE 8.0 km/h 14.5 km/h 33% 0.0 mm CLR
14:00 34.7 °C 15.6 °C 1012.9 hPa ENE 9.7 km/h 14.5 km/h 32% 0.0 mm CLR
14:05 34.7 °C 15.6 °C 1012.7 hPa ENE 9.7 km/h 22.5 km/h 32% 0.0 mm CLR
14:10 34.7 °C 15.6 °C 1012.7 hPa East 9.7 km/h 20.9 km/h 32% 0.0 mm CLR
14:15 34.7 °C 15.6 °C 1012.7 hPa East 9.7 km/h 16.1 km/h 32% 0.0 mm CLR
14:20 34.8 °C 16.2 °C 1012.6 hPa ESE 11.3 km/h 22.5 km/h 33% 0.0 mm CLR
14:25 34.8 °C 16.2 °C 1012.6 hPa ESE 11.3 km/h 19.3 km/h 33% 0.0 mm CLR
14:30 34.9 °C 16.2 °C 1012.6 hPa East 9.7 km/h 14.5 km/h 33% 0.0 mm CLR
14:35 35.1 °C 16.8 °C 1012.5 hPa East 9.7 km/h 20.9 km/h 34% 0.0 mm CLR
14:40 34.9 °C 16.7 °C 1012.5 hPa East 9.7 km/h 14.5 km/h 34% 0.0 mm CLR
14:45 35.2 °C 17.4 °C 1012.5 hPa ENE 9.7 km/h 24.1 km/h 35% 0.0 mm CLR
14:50 35.3 °C 17.5 °C 1012.2 hPa East 9.7 km/h 16.1 km/h 35% 0.0 mm CLR
14:55 35.6 °C 17.3 °C 1012.2 hPa East 9.7 km/h 16.1 km/h 34% 0.0 mm CLR
15:00 35.6 °C 17.8 °C 1012.2 hPa East 9.7 km/h 12.9 km/h 35% 0.0 mm CLR
15:05 35.7 °C 16.9 °C 1012.1 hPa ENE 9.7 km/h 17.7 km/h 33% 0.0 mm CLR
15:10 35.6 °C 17.8 °C 1012.1 hPa NE 8.0 km/h 16.1 km/h 35% 0.0 mm CLR
15:15 35.7 °C 17.4 °C 1012.1 hPa East 8.0 km/h 12.9 km/h 34% 0.0 mm CLR
15:20 35.8 °C 17.9 °C 1011.9 hPa ESE 8.0 km/h 14.5 km/h 35% 0.0 mm CLR
15:25 35.8 °C 17.9 °C 1011.9 hPa SE 8.0 km/h 22.5 km/h 35% 0.0 mm CLR
15:30 35.7 °C 18.3 °C 1011.9 hPa SE 9.7 km/h 19.3 km/h 36% 0.0 mm CLR
15:35 35.7 °C 17.9 °C 1011.7 hPa SE 9.7 km/h 16.1 km/h 35% 0.0 mm CLR
15:40 35.8 °C 18.4 °C 1011.7 hPa SE 8.0 km/h 20.9 km/h 36% 0.0 mm CLR
15:45 35.9 °C 18.4 °C 1011.7 hPa SE 8.0 km/h 20.9 km/h 36% 0.0 mm CLR
15:50 35.7 °C 18.3 °C 1011.5 hPa SE 11.3 km/h 22.5 km/h 36% 0.0 mm CLR
15:55 35.7 °C 18.8 °C 1011.5 hPa SE 11.3 km/h 22.5 km/h 37% 0.0 mm CLR
16:00 35.7 °C 18.8 °C 1011.5 hPa SE 14.5 km/h 25.7 km/h 37% 0.0 mm CLR
16:05 35.7 °C 18.3 °C 1011.3 hPa ESE 14.5 km/h 24.1 km/h 36% 0.0 mm CLR
16:10 35.8 °C 18.8 °C 1011.3 hPa ESE 12.9 km/h 22.5 km/h 37% 0.0 mm CLR
16:15 35.7 °C 18.8 °C 1011.3 hPa SE 12.9 km/h 24.1 km/h 37% 0.0 mm CLR
16:20 35.7 °C 18.7 °C 1011.2 hPa SE 14.5 km/h 20.9 km/h 37% 0.0 mm CLR
16:25 35.8 °C 18.8 °C 1011.2 hPa ESE 14.5 km/h 22.5 km/h 37% 0.0 mm CLR
16:30 35.9 °C 18.9 °C 1011.2 hPa ESE 12.9 km/h 25.7 km/h 37% 0.0 mm CLR
16:35 35.9 °C 19.3 °C 1011.0 hPa ESE 12.9 km/h 24.1 km/h 38% 0.0 mm CLR
16:40 35.7 °C 19.2 °C 1011.0 hPa SE 12.9 km/h 27.4 km/h 38% 0.0 mm CLR
16:45 35.7 °C 20.0 °C 1011.0 hPa SE 12.9 km/h 22.5 km/h 40% 0.0 mm CLR
16:50 35.9 °C 20.2 °C 1010.9 hPa SE 12.9 km/h 25.7 km/h 40% 0.0 mm CLR
16:55 35.7 °C 20.4 °C 1010.9 hPa SE 12.9 km/h 25.7 km/h 41% 0.0 mm CLR
17:00 35.4 °C 20.6 °C 1010.9 hPa ESE 16.1 km/h 29.0 km/h 42% 0.0 mm CLR
17:05 35.6 °C 20.3 °C 1010.7 hPa ESE 16.1 km/h 25.7 km/h 41% 0.0 mm CLR
17:10 35.3 °C 20.4 °C 1010.7 hPa SE 14.5 km/h 27.4 km/h 42% 0.0 mm CLR
17:15 35.3 °C 20.8 °C 1010.7 hPa ESE 14.5 km/h 22.5 km/h 43% 0.0 mm CLR
17:20 35.2 °C 20.7 °C 1010.7 hPa ESE 14.5 km/h 30.6 km/h 43% 0.0 mm CLR
17:25 34.9 °C 20.4 °C 1010.7 hPa ESE 14.5 km/h 30.6 km/h 43% 0.0 mm CLR
17:30 34.9 °C 20.1 °C 1010.7 hPa ESE 16.1 km/h 25.7 km/h 42% 0.0 mm CLR
17:35 34.7 °C 19.9 °C 1010.7 hPa ESE 16.1 km/h 27.4 km/h 42% 0.0 mm CLR
17:40 34.7 °C 19.5 °C 1010.7 hPa ESE 16.1 km/h 27.4 km/h 41% 0.0 mm CLR
17:45 34.9 °C 19.3 °C 1010.7 hPa ESE 16.1 km/h 22.5 km/h 40% 0.0 mm CLR
17:50 35.1 °C 19.1 °C 1010.6 hPa ESE 12.9 km/h 20.9 km/h 39% 0.0 mm CLR
17:55 35.1 °C 19.1 °C 1010.6 hPa ESE 12.9 km/h 20.9 km/h 39% 0.0 mm CLR
18:00 35.1 °C 18.7 °C 1010.6 hPa ESE 12.9 km/h 24.1 km/h 38% 0.0 mm CLR
18:05 34.9 °C 18.1 °C 1010.6 hPa ESE 12.9 km/h 24.1 km/h 37% 0.0 mm CLR
18:10 34.8 °C 18.4 °C 1010.6 hPa ESE 16.1 km/h 24.1 km/h 38% 0.0 mm CLR
18:15 34.8 °C 18.4 °C 1010.6 hPa ESE 16.1 km/h 27.4 km/h 38% 0.0 mm CLR
18:20 34.7 °C 18.3 °C 1010.3 hPa ESE 16.1 km/h 24.1 km/h 38% 0.0 mm CLR
18:25 34.7 °C 18.3 °C 1010.3 hPa ESE 16.1 km/h 25.7 km/h 38% 0.0 mm CLR
18:30 34.6 °C 18.2 °C 1010.3 hPa ESE 14.5 km/h 22.5 km/h 38% 0.0 mm CLR
18:35 34.7 °C 18.3 °C 1010.4 hPa ESE 14.5 km/h 24.1 km/h 38% 0.0 mm CLR
18:40 34.6 °C 18.2 °C 1010.4 hPa ESE 14.5 km/h 24.1 km/h 38% 0.0 mm CLR
18:45 34.6 °C 17.8 °C 1010.4 hPa ESE 14.5 km/h 24.1 km/h 37% 0.0 mm CLR
18:50 34.7 °C 17.9 °C 1010.1 hPa ESE 14.5 km/h 22.5 km/h 37% 0.0 mm CLR
18:55 34.8 °C 17.9 °C 1010.1 hPa ESE 14.5 km/h 20.9 km/h 37% 0.0 mm CLR
19:00 34.6 °C 17.8 °C 1010.1 hPa ESE 11.3 km/h 20.9 km/h 37% 0.0 mm CLR
19:05 34.4 °C 18.1 °C 1010.1 hPa ESE 11.3 km/h 22.5 km/h 38% 0.0 mm CLR
19:10 34.3 °C 18.3 °C 1010.1 hPa ESE 12.9 km/h 24.1 km/h 39% 0.0 mm CLR
19:15 34.1 °C 18.2 °C 1010.1 hPa ESE 12.9 km/h 24.1 km/h 39% 0.0 mm CLR
19:20 34.0 °C 18.1 °C 1010.0 hPa ESE 12.9 km/h 20.9 km/h 39% 0.0 mm CLR
19:25 33.9 °C 18.1 °C 1010.0 hPa East 12.9 km/h 17.7 km/h 39% 0.0 mm CLR
19:30 33.8 °C 17.9 °C 1010.0 hPa East 11.3 km/h 16.1 km/h 39% 0.0 mm CLR
19:35 33.8 °C 17.9 °C 1009.9 hPa East 10.3 km/h 11.1 km/h 39% 0.0 mm CLR
19:40 33.7 °C 17.8 °C 1009.9 hPa ENE 8.7 km/h 9.5 km/h 39% 0.0 mm CLR
19:45 33.6 °C 17.7 °C 1009.9 hPa ENE 9.7 km/h 22.5 km/h 39% 0.0 mm CLR
19:50 33.2 °C 17.4 °C 1009.9 hPa ENE 11.1 km/h 27.8 km/h 39% 0.0 mm CLR
19:55 32.9 °C 17.5 °C 1009.9 hPa NE 11.3 km/h 27.4 km/h 40% 0.0 mm CLR
20:00 32.6 °C 18.3 °C 1009.9 hPa NE 16.1 km/h 24.1 km/h 43% 0.0 mm CLR
20:05 32.1 °C 18.3 °C 1009.9 hPa NE 16.1 km/h 25.7 km/h 44% 0.0 mm CLR
20:10 31.7 °C 18.3 °C 1009.9 hPa NE 14.5 km/h 24.1 km/h 45% 0.0 mm CLR
20:15 31.5 °C 18.4 °C 1009.9 hPa NE 14.5 km/h 20.9 km/h 46% 0.0 mm CLR
20:20 31.3 °C 18.6 °C 1010.0 hPa NE 14.5 km/h 24.1 km/h 47% 0.0 mm CLR
20:25 31.1 °C 18.8 °C 1010.0 hPa NE 14.5 km/h 24.1 km/h 48% 0.0 mm CLR
20:30 30.9 °C 18.6 °C 1010.0 hPa NE 12.9 km/h 20.9 km/h 48% 0.0 mm CLR
20:35 30.7 °C 18.8 °C 1010.1 hPa NE 12.9 km/h 24.1 km/h 49% 0.0 mm CLR
20:40 30.5 °C 18.6 °C 1010.1 hPa NE 14.5 km/h 20.9 km/h 49% 0.0 mm CLR
20:45 30.3 °C 18.4 °C 1010.1 hPa NE 14.5 km/h 22.5 km/h 49% 0.0 mm CLR
20:50 30.1 °C 18.2 °C 1010.2 hPa NE 12.9 km/h 19.3 km/h 49% 0.0 mm CLR
20:55 29.9 °C 18.3 °C 1010.2 hPa NE 12.9 km/h 16.1 km/h 50% 0.0 mm CLR
21:00 29.7 °C 18.2 °C 1010.2 hPa NE 9.7 km/h 20.9 km/h 50% 0.0 mm CLR
21:05 29.6 °C 18.4 °C 1010.3 hPa NE 9.7 km/h 16.1 km/h 51% 0.0 mm CLR
21:10 29.4 °C 18.5 °C 1010.3 hPa NE 9.7 km/h 19.3 km/h 52% 0.0 mm CLR
21:15 29.3 °C 18.7 °C 1010.3 hPa NE 9.7 km/h 22.5 km/h 53% 0.0 mm CLR
21:20 29.2 °C 18.6 °C 1010.5 hPa NE 9.7 km/h 14.5 km/h 53% 0.0 mm CLR
21:25 29.1 °C 18.6 °C 1010.5 hPa NE 9.7 km/h 14.5 km/h 53% 0.0 mm CLR
21:30 28.9 °C 18.7 °C 1010.5 hPa NE 8.0 km/h 12.9 km/h 54% 0.0 mm CLR
21:35 28.8 °C 18.6 °C 1010.7 hPa NE 8.0 km/h 17.7 km/h 54% 0.0 mm CLR
21:40 28.6 °C 18.7 °C 1010.7 hPa NE 9.7 km/h 20.9 km/h 55% 0.0 mm CLR
21:45 28.4 °C 19.3 °C 1010.7 hPa NE 9.7 km/h 19.3 km/h 58% 0.0 mm CLR
21:50 28.2 °C 19.7 °C 1010.9 hPa NE 12.9 km/h 20.9 km/h 60% 0.0 mm CLR
21:55 28.2 °C 19.9 °C 1010.9 hPa NE 12.9 km/h 20.9 km/h 61% 0.0 mm CLR
22:00 28.1 °C 19.6 °C 1010.9 hPa NE 12.9 km/h 24.1 km/h 60% 0.0 mm CLR
22:05 28.1 °C 19.3 °C 1010.9 hPa NE 12.9 km/h 22.5 km/h 59% 0.0 mm CLR
22:10 28.1 °C 19.1 °C 1010.9 hPa NE 12.9 km/h 24.1 km/h 58% 0.0 mm CLR
22:15 28.1 °C 18.8 °C 1010.9 hPa NE 12.9 km/h 20.9 km/h 57% 0.0 mm CLR
22:20 28.1 °C 18.5 °C 1011.1 hPa NE 12.9 km/h 20.9 km/h 56% 0.0 mm CLR
22:25 28.1 °C 18.5 °C 1011.1 hPa NE 13.7 km/h 18.5 km/h 56% 0.0 mm CLR
22:30 28.1 °C 18.2 °C 1011.1 hPa NE 11.3 km/h 16.1 km/h 55% 0.0 mm CLR
22:35 28.0 °C 18.1 °C 1011.3 hPa NE 11.3 km/h 16.1 km/h 55% 0.0 mm CLR
22:40 27.9 °C 18.1 °C 1011.3 hPa NE 9.7 km/h 16.1 km/h 55% 0.0 mm CLR
22:45 27.9 °C 18.0 °C 1011.3 hPa NE 9.7 km/h 16.1 km/h 55% 0.0 mm CLR
22:50 27.8 °C 17.9 °C 1011.4 hPa NE 9.7 km/h 16.1 km/h 55% 0.0 mm CLR
22:55 27.7 °C 18.1 °C 1011.4 hPa NE 9.7 km/h 14.5 km/h 56% 0.0 mm CLR
23:00 27.6 °C 18.1 °C 1011.4 hPa NE 9.7 km/h 16.1 km/h 56% 0.0 mm CLR
23:05 27.5 °C 18.2 °C 1011.6 hPa NE 9.7 km/h 14.5 km/h 57% 0.0 mm CLR
23:10 27.4 °C 18.4 °C 1011.6 hPa NE 8.0 km/h 12.9 km/h 58% 0.0 mm CLR
23:15 27.3 °C 18.6 °C 1011.6 hPa NE 8.0 km/h 11.3 km/h 59% 0.0 mm CLR
23:20 27.2 °C 19.5 °C 1011.6 hPa NE 8.0 km/h 14.5 km/h 63% 0.0 mm CLR
23:25 27.0 °C 19.3 °C 1011.6 hPa NE 8.0 km/h 12.9 km/h 63% 0.0 mm CLR
23:30 26.9 °C 20.0 °C 1011.6 hPa NNE 8.0 km/h 11.3 km/h 66% 0.0 mm CLR
23:35 26.7 °C 19.8 °C 1011.6 hPa NNE 8.0 km/h 14.5 km/h 66% 0.0 mm CLR
23:40 26.6 °C 19.9 °C 1011.6 hPa NE 9.7 km/h 14.5 km/h 67% 0.0 mm CLR
23:45 26.5 °C 20.6 °C 1011.6 hPa NNE 9.7 km/h 12.9 km/h 70% 0.0 mm CLR
23:50 26.4 °C 20.9 °C 1011.7 hPa NNE 8.0 km/h 14.5 km/h 72% 0.0 mm CLR
23:55 26.3 °C 21.3 °C 1011.7 hPa NNE 8.0 km/h 14.5 km/h 74% 0.0 mm CLR
Murcia-Puente Tocinos, España
Compliments of Weather Underground - 2.75 mb

La estación de MeteoMurcia.com, publica sus datos en los siguientes proyectos:

Weather Underground PWS IMURCIAP2 Meteoclimatic www.awekas.at

W3Counter
Web Analytics